Time;durP1;ratioP1;P1;durP2;ratioP2;P2;SDS_P1;SDS_P2;PMS_P1;PMS_P2;Temp;Humidity;BMP_temperature;BMP_pressure;BME280_temperature;BME280_humidity;BME280_pressure;Samples;Min_cycle;Max_cycle;Signal;HPM_P1;HPM_P2
2023/12/30 00:01:39;;;;;;;;;2.00;2.00;;;;;10.14;89.10;101358.38;5079683;28;45513;-51
2023/12/30 00:04:04;;;;;;;;;1.00;1.00;;;;;10.14;89.20;101353.06;5070962;28;69165;-48
2023/12/30 00:06:29;;;;;;;;;3.00;0.67;;;;;10.13;89.36;101360.19;5068902;28;73436;-51
2023/12/30 00:08:54;;;;;;;;;0.33;0.33;;;;;10.15;89.48;101362.78;5071924;28;69917;-50
2023/12/30 00:11:20;;;;;;;;;4.00;2.00;;;;;10.16;89.32;101367.19;5066767;28;65303;-50
2023/12/30 00:13:45;;;;;;;;;0.67;0.67;;;;;10.18;89.32;101352.91;5074056;28;45589;-47
2023/12/30 00:16:11;;;;;;;;;1.00;1.00;;;;;10.24;89.30;101355.28;5065961;28;46079;-48
2023/12/30 00:18:36;;;;;;;;;2.00;0.00;;;;;10.31;89.40;101355.94;5067183;28;45541;-48
2023/12/30 00:21:02;;;;;;;;;0.00;0.00;;;;;10.36;89.00;101355.78;5070296;28;45573;-47
2023/12/30 00:23:27;;;;;;;;;1.67;1.00;;;;;10.39;89.08;101356.53;5078271;28;45442;-48
2023/12/30 00:25:54;;;;;;;;;2.00;1.00;;;;;10.40;88.65;101349.41;5073712;28;46795;-47
2023/12/30 00:28:19;;;;;;;;;1.00;1.00;;;;;10.42;88.59;101350.22;5074683;28;45391;-46
2023/12/30 00:30:45;;;;;;;;;1.33;1.33;;;;;10.45;88.45;101350.06;5070961;28;45508;-48
2023/12/30 00:33:10;;;;;;;;;1.00;1.00;;;;;10.44;88.22;101348.34;5066117;28;66641;-48
2023/12/30 00:35:35;;;;;;;;;3.00;1.33;;;;;10.45;87.87;101355.41;5073961;28;46083;-46
2023/12/30 00:38:01;;;;;;;;;2.00;2.00;;;;;10.42;88.21;101355.53;5067502;28;73517;-47
2023/12/30 00:40:26;;;;;;;;;2.33;1.00;;;;;10.41;88.07;101349.31;5060287;28;69415;-50
2023/12/30 00:42:51;;;;;;;;;1.00;1.00;;;;;10.43;88.16;101343.97;5069863;28;68187;-50
2023/12/30 00:45:17;;;;;;;;;3.00;1.67;;;;;10.41;87.81;101344.00;5073624;28;73804;-47
2023/12/30 00:47:42;;;;;;;;;2.33;1.00;;;;;10.42;87.84;101339.56;5067004;28;45430;-48
2023/12/30 00:50:07;;;;;;;;;1.00;1.00;;;;;10.39;87.57;101337.91;5073311;28;45218;-48
2023/12/30 00:52:33;;;;;;;;;4.67;1.00;;;;;10.39;87.78;101340.56;5071364;28;45800;-47
2023/12/30 00:54:58;;;;;;;;;3.67;2.33;;;;;10.39;87.33;101334.38;5072819;28;46198;-50
2023/12/30 00:57:23;;;;;;;;;2.67;1.00;;;;;10.37;87.53;101346.88;5078822;28;71363;-48
2023/12/30 00:59:49;;;;;;;;;1.00;1.00;;;;;10.31;87.27;101336.44;5067422;28;61539;-49
2023/12/30 01:02:14;;;;;;;;;2.67;2.00;;;;;10.24;87.50;101347.31;5072226;28;68350;-48
2023/12/30 01:04:39;;;;;;;;;2.00;2.00;;;;;10.20;87.42;101344.88;5074835;28;68264;-48
2023/12/30 01:07:05;;;;;;;;;1.00;1.00;;;;;10.16;87.59;101352.09;5070805;28;73300;-46
2023/12/30 01:09:30;;;;;;;;;2.00;2.00;;;;;10.13;87.37;101348.69;5073377;28;68816;-47
2023/12/30 01:11:55;;;;;;;;;4.00;1.00;;;;;10.09;87.77;101351.47;5073429;28;69114;-46
2023/12/30 01:14:21;;;;;;;;;1.00;1.00;;;;;10.06;87.62;101348.94;5055959;28;46922;-45
2023/12/30 01:16:46;;;;;;;;;1.33;1.33;;;;;10.04;88.05;101361.41;5069586;28;67851;-51
2023/12/30 01:19:12;;;;;;;;;3.33;1.00;;;;;10.03;88.02;101354.34;5049030;28;45529;-46
2023/12/30 01:21:37;;;;;;;;;1.33;0.00;;;;;10.01;87.70;101353.56;5076715;28;45546;-48
2023/12/30 01:24:02;;;;;;;;;0.33;0.33;;;;;10.01;87.68;101353.56;5053315;28;74412;-48
2023/12/30 01:26:27;;;;;;;;;0.00;0.00;;;;;10.01;87.79;101352.69;5069540;28;72829;-48
2023/12/30 01:28:53;;;;;;;;;1.33;1.00;;;;;9.99;87.76;101354.56;5071078;28;69313;-49
2023/12/30 01:31:18;;;;;;;;;1.00;1.00;;;;;9.97;87.75;101351.06;5068051;28;45390;-48
2023/12/30 01:33:44;;;;;;;;;0.33;0.33;;;;;9.96;88.01;101365.28;5063311;28;46361;-48
2023/12/30 01:36:11;;;;;;;;;1.67;1.00;;;;;9.93;87.91;101353.84;5074096;28;45418;-47
2023/12/30 01:38:36;;;;;;;;;2.00;0.00;;;;;9.93;88.03;101358.28;5073476;28;45456;-48
2023/12/30 01:41:01;;;;;;;;;1.33;1.00;;;;;9.91;88.42;101362.81;5071101;28;70419;-47
2023/12/30 01:43:30;;;;;;;;;1.00;1.00;;;;;9.87;88.52;101355.88;5070781;28;45469;-46
2023/12/30 01:46:01;;;;;;;;;1.33;1.00;;;;;9.84;88.26;101359.53;5067182;28;45422;-46
2023/12/30 01:48:27;;;;;;;;;1.00;1.00;;;;;9.82;88.32;101353.41;5071989;28;45693;-47
2023/12/30 01:50:55;;;;;;;;;1.00;1.00;;;;;9.82;88.61;101357.84;5072659;28;45663;-46
2023/12/30 01:53:21;;;;;;;;;1.00;1.00;;;;;9.80;88.36;101363.19;5074719;28;46356;-47
2023/12/30 01:55:50;;;;;;;;;1.00;1.00;;;;;9.78;88.80;101362.41;5074344;28;70755;-46
2023/12/30 01:58:15;;;;;;;;;0.33;0.00;;;;;9.78;88.87;101370.38;5076774;28;45538;-46
2023/12/30 02:00:42;;;;;;;;;0.00;0.00;;;;;9.77;88.89;101372.16;5050332;28;45435;-47
2023/12/30 02:03:07;;;;;;;;;2.00;1.00;;;;;9.77;88.74;101377.47;5076013;28;46118;-46
2023/12/30 02:05:33;;;;;;;;;1.33;1.00;;;;;9.77;88.71;101368.66;5050772;28;73125;-47
2023/12/30 02:07:59;;;;;;;;;1.00;1.00;;;;;9.76;88.97;101374.88;5073402;28;45932;-46
2023/12/30 02:10:24;;;;;;;;;0.67;0.67;;;;;9.75;88.54;101379.34;5077088;28;45630;-49
2023/12/30 02:12:49;;;;;;;;;1.00;1.00;;;;;9.73;88.47;101380.31;5071059;28;69862;-47
2023/12/30 02:15:21;;;;;;;;;1.00;1.00;;;;;9.71;88.97;101385.69;5074766;28;70047;-47
2023/12/30 02:17:50;;;;;;;;;0.00;0.00;;;;;9.70;88.80;101386.59;5069567;28;45720;-50
2023/12/30 02:20:15;;;;;;;;;1.33;0.00;;;;;9.70;88.94;101389.25;5067702;28;46450;-47
2023/12/30 02:22:47;;;;;;;;;2.00;1.00;;;;;9.69;88.95;101389.31;5062467;28;75637;-47
2023/12/30 02:25:13;;;;;;;;;1.67;0.00;;;;;9.68;88.56;101393.75;5070394;28;45487;-47
2023/12/30 02:27:41;;;;;;;;;1.00;1.00;;;;;9.67;88.60;101393.81;5072010;28;45340;-46
2023/12/30 02:30:07;;;;;;;;;0.00;0.00;;;;;9.65;88.90;101400.97;5076370;28;45555;-46
2023/12/30 02:32:32;;;;;;;;;0.00;0.00;;;;;9.63;89.14;101401.03;5075519;28;46330;-45
2023/12/30 02:34:57;;;;;;;;;0.67;0.33;;;;;9.62;89.05;101403.75;5069651;28;71605;-48
2023/12/30 02:37:22;;;;;;;;;1.33;1.00;;;;;9.62;88.86;101403.75;5069129;28;70498;-48
2023/12/30 02:39:48;;;;;;;;;1.00;1.00;;;;;9.60;88.87;101401.16;5063113;28;69169;-46
2023/12/30 02:42:13;;;;;;;;;0.00;0.00;;;;;9.59;88.97;101405.59;5076193;28;45446;-47
2023/12/30 02:44:38;;;;;;;;;0.00;0.00;;;;;9.59;89.14;101402.94;5071631;28;45386;-47
2023/12/30 02:47:04;;;;;;;;;1.00;1.00;;;;;9.58;89.34;101403.88;5066354;28;54739;-50
2023/12/30 02:49:32;;;;;;;;;1.00;1.00;;;;;9.60;89.22;101409.13;5066241;28;45427;-47
2023/12/30 02:51:57;;;;;;;;;0.00;0.00;;;;;9.59;89.06;101410.03;5073035;28;46300;-46
2023/12/30 02:54:22;;;;;;;;;2.00;0.33;;;;;9.58;88.95;101414.47;5070057;28;71923;-49
2023/12/30 02:56:48;;;;;;;;;1.00;1.00;;;;;9.58;89.02;101408.28;5060164;28;67972;-47
2023/12/30 02:59:13;;;;;;;;;1.00;1.00;;;;;9.57;89.21;101411.91;5071235;28;68280;-47
2023/12/30 03:01:38;;;;;;;;;1.00;1.00;;;;;9.57;89.03;101411.91;5064364;28;75752;-48
2023/12/30 03:04:04;;;;;;;;;0.00;0.00;;;;;9.57;88.84;101409.25;5066049;28;45329;-47
2023/12/30 03:06:29;;;;;;;;;0.33;0.33;;;;;9.56;89.16;101403.03;5071326;28;45326;-48
2023/12/30 03:08:54;;;;;;;;;3.33;1.67;;;;;9.56;89.05;101402.19;5074903;28;67469;-48
2023/12/30 03:11:21;;;;;;;;;1.00;1.00;;;;;9.55;89.13;101403.09;5066007;28;45399;-49
2023/12/30 03:13:46;;;;;;;;;0.33;0.33;;;;;9.53;88.79;101397.84;5054803;28;45628;-46
2023/12/30 03:16:15;;;;;;;;;2.00;0.33;;;;;9.54;88.82;101396.03;5072034;28;45568;-46
2023/12/30 03:18:41;;;;;;;;;0.67;0.67;;;;;9.53;88.77;101400.50;5061778;28;46035;-47
2023/12/30 03:21:09;;;;;;;;;0.00;0.00;;;;;9.53;88.90;101392.53;5035781;28;46119;-47
2023/12/30 03:23:36;;;;;;;;;2.00;1.00;;;;;9.54;88.78;101406.66;5071866;28;45467;-48
2023/12/30 03:26:02;;;;;;;;;0.33;0.33;;;;;9.53;88.70;101405.81;5066609;28;45423;-47
2023/12/30 03:28:27;;;;;;;;;0.00;0.00;;;;;9.53;88.90;101411.13;5066013;28;45580;-46
2023/12/30 03:30:53;;;;;;;;;1.00;1.00;;;;;9.52;88.74;101404.06;5069305;27;64488;-46
2023/12/30 03:33:18;;;;;;;;;0.00;0.00;;;;;9.51;88.57;101405.00;5065236;28;72314;-46
2023/12/30 03:35:43;;;;;;;;;1.00;0.00;;;;;9.52;88.65;101408.53;5073155;28;69351;-46
2023/12/30 03:38:09;;;;;;;;;0.00;0.00;;;;;9.51;88.85;101412.09;5069307;28;45486;-46
2023/12/30 03:40:34;;;;;;;;;1.00;0.67;;;;;9.50;88.89;101421.84;5073257;28;67403;-46
2023/12/30 03:43:00;;;;;;;;;0.67;0.33;;;;;9.50;88.99;101423.63;5076252;28;72438;-46
2023/12/30 03:45:25;;;;;;;;;0.00;0.00;;;;;9.49;88.80;101416.59;5056454;28;45382;-49
2023/12/30 03:47:52;;;;;;;;;0.00;0.00;;;;;9.49;88.94;101419.25;5069540;28;45457;-47
2023/12/30 03:50:17;;;;;;;;;0.00;0.00;;;;;9.49;89.08;101421.91;5067817;28;46266;-47
2023/12/30 03:52:43;;;;;;;;;0.00;0.00;;;;;9.47;89.01;101416.66;5078657;28;45276;-47
2023/12/30 03:55:08;;;;;;;;;2.00;1.00;;;;;9.44;88.70;101420.28;5051449;28;64933;-47
2023/12/30 03:57:33;;;;;;;;;2.33;0.33;;;;;9.44;88.92;101414.97;5066508;28;67027;-48
2023/12/30 03:59:59;;;;;;;;;1.00;0.00;;;;;9.43;88.96;101407.06;5072559;28;73186;-46
2023/12/30 04:02:24;;;;;;;;;0.67;0.00;;;;;9.42;88.72;101407.97;5059826;28;73051;-47
2023/12/30 04:04:49;;;;;;;;;0.00;0.00;;;;;9.40;88.90;101402.72;5059828;28;62434;-47
2023/12/30 04:07:15;;;;;;;;;2.00;1.00;;;;;9.39;88.78;101398.34;5077577;28;60210;-49
2023/12/30 04:09:40;;;;;;;;;1.00;0.00;;;;;9.38;89.23;101401.91;5067866;28;53580;-50
2023/12/30 04:12:05;;;;;;;;;1.00;1.00;;;;;9.38;89.07;101401.91;5074964;28;72976;-50
2023/12/30 04:14:31;;;;;;;;;1.00;0.00;;;;;9.36;89.32;101403.75;5079974;28;46619;-47
2023/12/30 04:16:56;;;;;;;;;2.00;1.00;;;;;9.37;89.23;101409.94;5068320;28;68399;-48
2023/12/30 04:19:23;;;;;;;;;3.33;0.00;;;;;9.35;89.23;101404.69;5072872;28;46294;-47
2023/12/30 04:21:49;;;;;;;;;0.00;0.00;;;;;9.34;89.22;101407.41;5043808;28;45630;-47
2023/12/30 04:24:14;;;;;;;;;1.33;0.00;;;;;9.34;89.35;101404.75;5074557;28;68916;-49
2023/12/30 04:26:39;;;;;;;;;1.33;1.33;;;;;9.33;89.64;101397.69;5071801;28;62328;-47
2023/12/30 04:29:05;;;;;;;;;4.33;1.00;;;;;9.31;89.38;101391.56;5073441;28;72949;-48
2023/12/30 04:31:30;;;;;;;;;1.00;0.00;;;;;9.32;89.37;101390.63;5073349;28;45500;-48
2023/12/30 04:33:55;;;;;;;;;4.00;1.33;;;;;9.30;89.26;101393.34;5065029;28;69339;-49
2023/12/30 04:36:20;;;;;;;;;1.00;1.00;;;;;9.30;89.53;101387.19;5074600;28;45576;-47
2023/12/30 04:38:46;;;;;;;;;0.00;0.00;;;;;9.29;89.18;101388.97;5063345;28;63506;-48
2023/12/30 04:41:11;;;;;;;;;1.33;0.33;;;;;9.29;89.17;101388.97;5067607;28;71308;-45
2023/12/30 04:43:36;;;;;;;;;0.00;0.00;;;;;9.28;89.30;101389.88;5068143;28;45432;-47
2023/12/30 04:46:02;;;;;;;;;0.00;0.00;;;;;9.28;89.49;101389.88;5068859;28;68398;-49
2023/12/30 04:48:27;;;;;;;;;0.00;0.00;;;;;9.27;89.08;101393.47;5079070;28;46140;-47
2023/12/30 04:50:53;;;;;;;;;0.67;0.67;;;;;9.27;89.15;101396.13;5074375;28;73328;-46
2023/12/30 04:53:18;;;;;;;;;3.00;0.00;;;;;9.25;89.59;101393.50;5076260;28;45452;-46
2023/12/30 04:55:44;;;;;;;;;0.00;0.00;;;;;9.26;89.55;101392.59;5077472;28;45596;-49
2023/12/30 04:58:09;;;;;;;;;0.00;0.00;;;;;9.26;89.46;101399.69;5040680;28;63246;-47
2023/12/30 05:00:34;;;;;;;;;0.00;0.00;;;;;9.26;89.20;101399.69;5058707;28;58254;-48
2023/12/30 05:03:00;;;;;;;;;1.33;0.33;;;;;9.25;89.43;101393.50;5076088;28;68324;-48
2023/12/30 05:05:25;;;;;;;;;0.00;0.00;;;;;9.26;89.42;101394.38;5075390;28;45676;-47
2023/12/30 05:07:50;;;;;;;;;0.33;0.33;;;;;9.24;89.47;101394.44;5066958;28;45514;-48
2023/12/30 05:10:16;;;;;;;;;1.33;1.00;;;;;9.25;89.24;101390.00;5070637;28;70135;-47
2023/12/30 05:12:41;;;;;;;;;2.00;0.00;;;;;9.25;88.82;101392.66;5070143;28;68020;-47
2023/12/30 05:15:07;;;;;;;;;2.00;1.00;;;;;9.24;89.01;101389.13;5064595;28;70440;-48
2023/12/30 05:17:32;;;;;;;;;1.33;0.00;;;;;9.24;88.87;101382.94;5074716;28;47161;-50
2023/12/30 05:19:58;;;;;;;;;1.00;0.00;;;;;9.24;88.96;101382.94;5076346;28;69368;-47
2023/12/30 05:22:23;;;;;;;;;0.67;0.00;;;;;9.23;88.89;101386.50;5077751;28;49032;-51
2023/12/30 05:24:48;;;;;;;;;1.67;1.00;;;;;9.23;88.62;101383.84;5072484;28;46362;-48
2023/12/30 05:27:14;;;;;;;;;1.33;1.00;;;;;9.23;88.85;101375.88;5058209;28;45507;-47
2023/12/30 05:29:39;;;;;;;;;0.67;0.00;;;;;9.22;88.90;101376.84;5069736;28;73664;-47
2023/12/30 05:32:05;;;;;;;;;1.00;1.00;;;;;9.21;89.03;101377.75;5068353;28;45489;-46
2023/12/30 05:34:30;;;;;;;;;0.33;0.33;;;;;9.19;88.73;101371.63;5061988;28;46092;-48
2023/12/30 05:36:56;;;;;;;;;0.00;0.00;;;;;9.16;88.80;101364.63;5078143;28;45442;-46
2023/12/30 05:39:21;;;;;;;;;2.00;1.00;;;;;9.18;89.21;101373.41;5063879;28;46723;-46
2023/12/30 05:41:46;;;;;;;;;2.67;0.00;;;;;9.17;89.48;101368.16;5056084;28;45359;-48
2023/12/30 05:44:12;;;;;;;;;2.33;0.00;;;;;9.17;89.43;101368.16;5069161;28;45707;-49
2023/12/30 05:46:37;;;;;;;;;0.00;0.00;;;;;9.16;89.61;101364.63;5069809;28;68150;-50
2023/12/30 05:49:02;;;;;;;;;0.00;0.00;;;;;9.15;89.85;101370.00;5067880;28;73330;-47
2023/12/30 05:51:28;;;;;;;;;1.33;0.00;;;;;9.14;90.14;101369.16;5065632;28;66486;-49
2023/12/30 05:53:53;;;;;;;;;2.00;1.00;;;;;9.15;90.02;101373.53;5064641;28;56792;-46
2023/12/30 05:56:26;;;;;;;;;2.00;0.00;;;;;9.16;89.92;101369.09;5071998;28;68929;-46
2023/12/30 05:58:53;;;;;;;;;3.33;0.33;;;;;9.17;90.42;101374.34;5071819;28;45481;-46
2023/12/30 06:01:18;;;;;;;;;1.33;0.33;;;;;9.19;90.44;101371.63;5073401;28;45721;-46
2023/12/30 06:03:43;;;;;;;;;2.67;1.00;;;;;9.20;90.43;101374.22;5076799;28;70519;-47
2023/12/30 06:06:09;;;;;;;;;2.00;1.00;;;;;9.24;90.60;101367.00;5066301;28;67590;-47
2023/12/30 06:08:34;;;;;;;;;1.00;1.00;;;;;9.26;90.64;101367.84;5071802;28;73225;-49
2023/12/30 06:10:59;;;;;;;;;0.00;0.00;;;;;9.28;90.76;101363.31;5067643;28;68210;-50
2023/12/30 06:13:25;;;;;;;;;2.67;0.00;;;;;9.30;90.66;101364.16;5077701;28;46311;-47
2023/12/30 06:15:51;;;;;;;;;2.00;1.00;;;;;9.32;90.39;101372.06;5072386;28;45924;-50
2023/12/30 06:18:16;;;;;;;;;1.00;0.67;;;;;9.31;90.76;101372.97;5072238;28;45835;-47
2023/12/30 06:20:46;;;;;;;;;1.00;1.00;;;;;9.30;90.57;101374.78;5065280;28;45405;-50
2023/12/30 06:23:11;;;;;;;;;1.00;1.00;;;;;9.30;90.77;101372.13;5065220;28;45717;-48
2023/12/30 06:25:37;;;;;;;;;1.00;0.33;;;;;9.31;90.50;101379.16;5064778;28;45426;-50
2023/12/30 06:28:03;;;;;;;;;2.00;0.67;;;;;9.31;90.51;101375.63;5063763;28;45415;-49
2023/12/30 06:30:28;;;;;;;;;2.00;0.00;;;;;9.30;90.69;101381.88;5070940;28;45309;-49
2023/12/30 06:32:54;;;;;;;;;0.00;0.00;;;;;9.29;90.76;101378.34;5063208;28;69309;-48
2023/12/30 06:35:19;;;;;;;;;0.67;0.67;;;;;9.27;90.67;101381.06;5069601;28;75695;-49
2023/12/30 06:37:44;;;;;;;;;3.00;0.67;;;;;9.27;90.80;101390.81;5072112;28;72192;-46
2023/12/30 06:40:10;;;;;;;;;0.00;0.00;;;;;9.27;90.68;101386.38;5068058;28;45499;-47
2023/12/30 06:42:35;;;;;;;;;0.33;0.00;;;;;9.29;90.77;101381.00;5064805;28;45600;-46
2023/12/30 06:45:00;;;;;;;;;0.00;0.00;;;;;9.32;91.05;101387.97;5066899;28;75165;-48
2023/12/30 06:47:26;;;;;;;;;0.00;0.00;;;;;9.34;90.85;101386.16;5071495;28;73294;-48
2023/12/30 06:49:51;;;;;;;;;0.67;0.00;;;;;9.35;90.62;101393.19;5061412;28;45419;-50
2023/12/30 06:52:19;;;;;;;;;0.00;0.00;;;;;9.34;90.52;101392.31;5068404;28;70441;-49
2023/12/30 06:54:45;;;;;;;;;2.00;0.33;;;;;9.35;90.46;101394.06;5061786;28;45882;-49
2023/12/30 06:57:10;;;;;;;;;0.00;0.00;;;;;9.33;90.81;101387.06;5062147;28;45479;-49
2023/12/30 06:59:36;;;;;;;;;1.67;0.33;;;;;9.32;90.60;101390.63;5067607;28;69321;-46
2023/12/30 07:02:01;;;;;;;;;2.00;1.00;;;;;9.29;90.48;101388.97;5072331;28;45251;-47
2023/12/30 07:04:27;;;;;;;;;0.00;0.00;;;;;9.27;90.87;101386.38;5074733;28;46081;-49
2023/12/30 07:06:53;;;;;;;;;3.00;1.00;;;;;9.26;90.76;101389.06;5055888;28;45950;-48
2023/12/30 07:09:18;;;;;;;;;2.67;0.00;;;;;9.24;90.65;101389.13;5071737;28;45324;-49
2023/12/30 07:11:44;;;;;;;;;2.00;0.00;;;;;9.23;90.61;101383.84;5062249;28;45447;-45
2023/12/30 07:14:09;;;;;;;;;0.00;0.00;;;;;9.20;91.02;101387.47;5066617;28;46265;-48
2023/12/30 07:16:34;;;;;;;;;2.33;1.00;;;;;9.20;91.10;101382.16;5071572;28;72542;-51
2023/12/30 07:18:59;;;;;;;;;0.00;0.00;;;;;9.21;91.62;101377.75;5069944;28;68321;-48
2023/12/30 07:21:25;;;;;;;;;0.00;0.00;;;;;9.19;91.26;101380.47;5050846;28;70244;-49
2023/12/30 07:23:50;;;;;;;;;1.00;0.00;;;;;9.21;91.35;101383.91;5052835;28;75432;-48
2023/12/30 07:26:15;;;;;;;;;0.00;0.00;;;;;9.21;91.05;101370.66;5071993;28;71950;-46
2023/12/30 07:28:41;;;;;;;;;0.67;0.67;;;;;9.21;91.46;101383.06;5060096;28;47340;-47
2023/12/30 07:31:06;;;;;;;;;1.00;1.00;;;;;9.21;91.48;101373.28;5065287;28;45431;-46
2023/12/30 07:33:32;;;;;;;;;0.00;0.00;;;;;9.22;91.21;101380.34;5065155;28;46344;-48
2023/12/30 07:35:57;;;;;;;;;0.00;0.00;;;;;9.20;91.08;101382.16;5062189;28;45498;-48
2023/12/30 07:38:23;;;;;;;;;2.00;0.00;;;;;9.20;91.08;101381.31;5072613;28;45708;-50
2023/12/30 07:40:48;;;;;;;;;1.00;0.00;;;;;9.18;91.13;101381.38;5072414;28;45883;-47
2023/12/30 07:43:13;;;;;;;;;4.00;2.00;;;;;9.16;91.82;101374.41;5061432;28;45917;-48
2023/12/30 07:45:39;;;;;;;;;0.00;0.00;;;;;9.13;91.60;101375.38;5070891;28;45469;-47
2023/12/30 07:48:04;;;;;;;;;1.00;1.00;;;;;9.10;91.47;101379.00;5074982;28;69292;-49
2023/12/30 07:50:30;;;;;;;;;1.00;1.00;;;;;9.11;91.76;101379.84;5039163;28;46258;-50
2023/12/30 07:52:55;;;;;;;;;1.67;0.33;;;;;9.11;91.92;101371.88;5073409;28;50952;-46
2023/12/30 07:55:20;;;;;;;;;4.67;1.00;;;;;9.13;91.50;101374.50;5076141;28;68560;-46
2023/12/30 07:57:46;;;;;;;;;1.00;1.00;;;;;9.15;91.54;101377.97;5068962;28;45453;-49
2023/12/30 08:00:11;;;;;;;;;0.00;0.00;;;;;9.16;91.32;101371.72;5066408;28;69527;-46
2023/12/30 08:02:37;;;;;;;;;2.00;1.00;;;;;9.16;91.16;101377.91;5058323;28;46900;-50
2023/12/30 08:05:02;;;;;;;;;0.00;0.00;;;;;9.18;91.31;101380.53;5066587;28;45418;-47
2023/12/30 08:07:28;;;;;;;;;0.00;0.00;;;;;9.20;91.15;101386.63;5058202;28;45466;-48
2023/12/30 08:09:53;;;;;;;;;0.67;0.67;;;;;9.21;90.84;101381.25;5050546;28;45617;-53
2023/12/30 08:12:19;;;;;;;;;1.00;1.00;;;;;9.22;90.97;101387.47;5063201;28;45526;-50
2023/12/30 08:14:44;;;;;;;;;0.00;0.00;;;;;9.25;90.34;101384.69;5060992;28;69833;-50
2023/12/30 08:17:09;;;;;;;;;0.00;0.00;;;;;9.26;90.11;101376.66;5056429;28;69433;-48
2023/12/30 08:19:34;;;;;;;;;0.67;0.67;;;;;9.27;90.10;101381.06;5079708;28;65089;-48
2023/12/30 08:22:00;;;;;;;;;0.00;0.00;;;;;9.30;90.07;101372.13;5075709;28;54623;-52
2023/12/30 08:24:28;;;;;;;;;0.33;0.33;;;;;9.33;89.29;101372.00;5057791;28;45483;-49
2023/12/30 08:26:53;;;;;;;;;0.67;0.67;;;;;9.35;89.03;101366.66;5072360;28;45542;-49
2023/12/30 08:29:19;;;;;;;;;1.00;1.00;;;;;9.34;88.31;101356.94;5072606;28;45461;-52
2023/12/30 08:31:47;;;;;;;;;1.00;1.00;;;;;9.36;88.18;101363.06;5054159;28;74669;-52
2023/12/30 08:34:13;;;;;;;;;0.00;0.00;;;;;9.38;88.24;101361.22;5059848;28;45395;-51
2023/12/30 08:36:38;;;;;;;;;0.00;0.00;;;;;9.40;87.96;101349.63;5058275;28;45483;-50
2023/12/30 08:39:03;;;;;;;;;0.67;0.00;;;;;9.39;87.04;101347.88;5075400;28;45636;-52
2023/12/30 08:41:29;;;;;;;;;1.00;1.00;;;;;9.53;87.49;101341.19;5066535;28;46079;-49
2023/12/30 08:43:56;;;;;;;;;0.33;0.33;;;;;9.62;86.81;101340.00;5066656;28;73253;-48
2023/12/30 08:46:22;;;;;;;;;0.67;0.67;;;;;9.70;86.46;101332.59;5065453;28;45545;-51
2023/12/30 08:48:47;;;;;;;;;0.00;0.00;;;;;9.76;86.06;101324.41;5057896;28;45783;-53
2023/12/30 08:51:12;;;;;;;;;0.67;0.67;;;;;9.80;85.71;101328.66;5055369;28;73891;-51
2023/12/30 08:53:38;;;;;;;;;0.00;0.00;;;;;9.80;85.54;101322.50;5067704;28;45421;-49
2023/12/30 08:56:03;;;;;;;;;0.00;0.00;;;;;9.81;85.78;101321.56;5076081;28;45776;-52
2023/12/30 08:58:29;;;;;;;;;1.00;0.00;;;;;9.81;85.88;101314.47;5078245;28;46801;-52
2023/12/30 09:00:54;;;;;;;;;0.00;0.00;;;;;9.82;85.60;101313.53;5072897;28;73605;-50
2023/12/30 09:03:20;;;;;;;;;0.00;0.00;;;;;9.79;85.96;101315.44;5068513;28;45431;-50
2023/12/30 09:05:45;;;;;;;;;0.67;0.67;;;;;9.85;86.35;101323.19;5054487;28;68765;-50
2023/12/30 09:08:10;;;;;;;;;0.00;0.00;;;;;9.85;86.42;101320.53;5076136;28;45543;-53
2023/12/30 09:10:36;;;;;;;;;1.67;0.00;;;;;9.86;86.64;101316.94;5052011;28;74776;-49
2023/12/30 09:13:01;;;;;;;;;2.00;0.00;;;;;9.86;86.89;101315.16;5074284;28;45433;-52
2023/12/30 09:15:26;;;;;;;;;1.00;0.67;;;;;9.94;86.94;101322.81;5066498;28;67301;-53
2023/12/30 09:17:52;;;;;;;;;0.00;0.00;;;;;10.02;87.21;101318.06;5066678;28;45489;-50
2023/12/30 09:20:17;;;;;;;;;1.33;0.00;;;;;10.09;87.35;101318.72;5070259;28;45622;-52
2023/12/30 09:22:43;;;;;;;;;1.00;1.00;;;;;10.14;87.21;101319.38;5076507;28;45494;-51
2023/12/30 09:25:08;;;;;;;;;3.00;1.00;;;;;10.16;87.44;101322.84;5073300;28;45332;-51
2023/12/30 09:27:34;;;;;;;;;1.00;1.00;;;;;10.21;87.34;101320.88;5067434;28;45302;-51
2023/12/30 09:29:59;;;;;;;;;1.00;1.00;;;;;10.21;87.37;101315.56;5067925;28;72226;-52
2023/12/30 09:32:24;;;;;;;;;1.00;1.00;;;;;10.19;87.30;101332.50;5066902;28;45450;-52
2023/12/30 09:34:50;;;;;;;;;0.00;0.00;;;;;10.20;87.56;101326.25;5078281;28;48223;-50
2023/12/30 09:37:17;;;;;;;;;1.67;1.00;;;;;10.22;87.79;101325.25;5077513;28;45469;-48
2023/12/30 09:39:43;;;;;;;;;2.00;2.00;;;;;10.26;87.77;101326.00;5061570;28;45820;-51
2023/12/30 09:42:08;;;;;;;;;1.00;0.67;;;;;10.31;87.79;101323.16;5071269;28;45408;-53
2023/12/30 09:44:34;;;;;;;;;1.00;1.00;;;;;10.37;87.60;101322.94;5079572;28;45403;-50
2023/12/30 09:47:00;;;;;;;;;0.33;0.33;;;;;10.44;87.57;101324.41;5078086;28;45541;-50
2023/12/30 09:49:25;;;;;;;;;5.00;1.67;;;;;10.48;87.34;101328.69;5042196;28;46774;-53
2023/12/30 09:51:50;;;;;;;;;1.67;1.33;;;;;10.50;87.12;101331.28;5072634;28;62018;-48
2023/12/30 09:54:16;;;;;;;;;1.33;1.33;;;;;10.54;87.11;101328.41;5071193;28;63532;-50
2023/12/30 09:56:41;;;;;;;;;0.67;0.67;;;;;10.58;86.78;101326.50;5071017;28;67656;-48
2023/12/30 09:59:07;;;;;;;;;2.00;1.00;;;;;10.71;86.97;101324.19;5068675;28;45481;-49
2023/12/30 10:01:33;;;;;;;;;2.00;2.00;;;;;11.08;87.16;101331.47;5074106;28;45390;-52
2023/12/30 10:03:58;;;;;;;;;1.00;1.00;;;;;11.64;84.25;101309.47;5072039;28;45422;-52
2023/12/30 10:06:24;;;;;;;;;1.33;1.33;;;;;12.20;84.31;101308.63;5076462;28;69258;-52
2023/12/30 10:08:50;;;;;;;;;1.00;1.00;;;;;12.65;78.30;101309.06;5054329;28;47549;-53
2023/12/30 10:11:16;;;;;;;;;1.00;1.00;;;;;12.73;76.65;101304.19;5067420;28;45442;-49
2023/12/30 10:13:41;;;;;;;;;1.00;1.00;;;;;12.84;76.74;101298.31;5045605;28;68410;-52
2023/12/30 10:16:08;;;;;;;;;2.00;2.00;;;;;12.92;76.45;101303.25;5076763;28;45492;-49
2023/12/30 10:18:36;;;;;;;;;1.00;1.00;;;;;12.87;76.03;101297.28;5072377;28;45680;-48
2023/12/30 10:21:03;;;;;;;;;1.00;1.00;;;;;12.69;75.82;101299.94;5065069;28;45400;-47
2023/12/30 10:23:30;;;;;;;;;0.00;0.00;;;;;12.58;76.70;101297.84;5067943;28;45512;-51
2023/12/30 10:25:55;;;;;;;;;3.33;3.00;;;;;12.56;77.30;101297.03;5060376;28;45612;-51
2023/12/30 10:28:21;;;;;;;;;1.00;1.00;;;;;12.52;77.21;101297.28;5060501;28;47222;-47
2023/12/30 10:30:47;;;;;;;;;1.67;1.00;;;;;12.49;77.60;101297.41;5048118;28;67490;-49
2023/12/30 10:33:14;;;;;;;;;0.00;0.00;;;;;12.65;76.67;101290.38;5067518;28;45724;-47
2023/12/30 10:35:40;;;;;;;;;1.00;1.00;;;;;12.83;75.67;101295.72;5058585;28;45423;-51
2023/12/30 10:38:10;;;;;;;;;1.00;1.00;;;;;12.95;76.04;101284.41;5058419;28;45508;-50
2023/12/30 10:40:35;;;;;;;;;2.00;0.00;;;;;12.98;74.98;101283.38;5073577;28;45377;-47
2023/12/30 10:43:02;;;;;;;;;1.00;1.00;;;;;12.96;75.06;101275.44;5074310;28;45430;-48
2023/12/30 10:45:27;;;;;;;;;1.00;0.67;;;;;12.83;75.89;101266.38;5074213;28;45640;-49
2023/12/30 10:47:55;;;;;;;;;2.00;0.00;;;;;12.65;75.56;101265.50;5055276;28;47772;-50
2023/12/30 10:50:22;;;;;;;;;1.67;1.67;;;;;12.48;76.66;101258.38;5064895;28;45707;-51
2023/12/30 10:53:00;;;;;;;;;0.67;0.67;;;;;12.35;77.30;101264.31;5068970;28;45441;-49
2023/12/30 10:55:32;;;;;;;;;1.00;1.00;;;;;12.39;78.13;101265.03;5058379;28;45518;-53
2023/12/30 10:58:14;;;;;;;;;1.33;1.33;;;;;12.53;77.83;101254.50;5070207;28;45391;-50
2023/12/30 11:00:42;;;;;;;;;1.00;1.00;;;;;12.60;77.52;101244.38;5058080;28;45776;-51
2023/12/30 11:03:07;;;;;;;;;4.00;1.00;;;;;12.83;78.41;101239.66;5074052;28;45418;-52
2023/12/30 11:05:40;;;;;;;;;1.00;1.00;;;;;13.12;77.21;101237.25;5076378;28;64302;-53
2023/12/30 11:08:06;;;;;;;;;2.00;0.33;;;;;13.23;75.59;101240.19;5043277;28;45960;-53
2023/12/30 11:10:32;;;;;;;;;3.00;1.00;;;;;13.33;75.42;101237.91;5075287;28;45343;-54
2023/12/30 11:12:57;;;;;;;;;2.00;2.00;;;;;13.36;74.87;101235.03;5076460;28;45517;-49
2023/12/30 11:15:29;;;;;;;;;3.00;3.00;;;;;13.23;75.66;101229.50;5070347;28;45498;-50
2023/12/30 11:17:59;;;;;;;;;1.00;1.00;;;;;13.05;75.18;101224.22;5069608;28;45676;-53
2023/12/30 11:20:27;;;;;;;;;1.00;1.00;;;;;12.93;76.18;101229.34;5074375;28;45549;-50
2023/12/30 11:22:54;;;;;;;;;1.00;1.00;;;;;12.87;76.87;101228.72;5068917;28;45426;-53
2023/12/30 11:25:20;;;;;;;;;1.67;1.33;;;;;12.79;76.61;101238.06;5072710;28;45954;-52